createdAt,value
2019-04-11T00:00:50.470Z,1015.43
2019-04-11T00:01:52.682Z,1015.41
2019-04-11T00:02:49.091Z,1015.40
2019-04-11T00:03:49.416Z,1015.42
2019-04-11T00:04:48.926Z,1015.42
2019-04-11T00:05:48.914Z,1015.40
2019-04-11T00:06:49.905Z,1015.42
2019-04-11T00:07:48.897Z,1015.43
2019-04-11T00:08:48.899Z,1015.42
2019-04-11T00:09:49.310Z,1015.43
2019-04-11T00:10:49.200Z,1015.44
2019-04-11T00:11:48.857Z,1015.44
2019-04-11T00:12:48.845Z,1015.45
2019-04-11T00:13:49.501Z,1015.42
2019-04-11T00:14:48.820Z,1015.44
2019-04-11T00:15:48.867Z,1015.47
2019-04-11T00:16:49.875Z,1015.50
2019-04-11T00:17:48.797Z,1015.48
2019-04-11T00:18:49.219Z,1015.47
2019-04-11T00:19:48.791Z,1015.51
2019-04-11T00:20:48.756Z,1015.53
2019-04-11T00:21:48.947Z,1015.55
2019-04-11T00:22:50.108Z,1015.56
2019-04-11T00:23:48.728Z,1015.52
2019-04-11T00:24:49.186Z,1015.56
2019-04-11T00:25:49.574Z,1015.55
2019-04-11T00:26:48.733Z,1015.58
2019-04-11T00:27:48.934Z,1015.54
2019-04-11T00:28:48.689Z,1015.57
2019-04-11T00:29:48.680Z,1015.58
2019-04-11T00:30:48.653Z,1015.54
2019-04-11T00:31:49.546Z,1015.58
2019-04-11T00:32:49.689Z,1015.55
2019-04-11T00:33:48.758Z,1015.53
2019-04-11T00:34:48.637Z,1015.54
2019-04-11T00:35:48.605Z,1015.56
2019-04-11T00:36:48.590Z,1015.54
2019-04-11T00:37:49.522Z,1015.56
2019-04-11T00:38:48.568Z,1015.53
2019-04-11T00:39:48.561Z,1015.54
2019-04-11T00:40:49.139Z,1015.52
2019-04-11T00:41:48.537Z,1015.55
2019-04-11T00:42:48.539Z,1015.56
2019-04-11T00:43:48.517Z,1015.58
2019-04-11T00:44:49.445Z,1015.59
2019-04-11T00:45:48.759Z,1015.54
2019-04-11T00:46:48.881Z,1015.56
2019-04-11T00:47:49.053Z,1015.60
2019-04-11T00:48:48.462Z,1015.53
2019-04-11T00:49:48.523Z,1015.57
2019-04-11T00:50:49.567Z,1015.54
2019-04-11T00:51:48.430Z,1015.54
2019-04-11T00:52:49.565Z,1015.55
2019-04-11T00:53:48.406Z,1015.55
2019-04-11T00:54:49.103Z,1015.59
2019-04-11T00:55:48.427Z,1015.55
2019-04-11T00:56:48.514Z,1015.56
2019-04-11T00:57:49.443Z,1015.55
2019-04-11T00:58:48.356Z,1015.57
2019-04-11T00:59:48.819Z,1015.52
2019-04-11T01:00:48.351Z,1015.55
2019-04-11T01:01:49.934Z,1015.57
2019-04-11T01:02:49.517Z,1015.62
2019-04-11T01:03:49.470Z,1015.57
2019-04-11T01:04:48.776Z,1015.54
2019-04-11T01:05:48.298Z,1015.55
2019-04-11T01:06:48.270Z,1015.58
2019-04-11T01:07:49.191Z,1015.55
2019-04-11T01:08:48.258Z,1015.58
2019-04-11T01:09:48.604Z,1015.62
2019-04-11T01:10:48.245Z,1015.57
2019-04-11T01:11:48.219Z,1015.60
2019-04-11T01:12:49.777Z,1015.59
2019-04-11T01:13:52.391Z,1015.62
2019-04-11T01:14:49.182Z,1015.57
2019-04-11T01:15:48.966Z,1015.55
2019-04-11T01:16:48.588Z,1015.55
2019-04-11T01:17:48.159Z,1015.61
2019-04-11T01:18:48.139Z,1015.59
2019-04-11T01:19:49.046Z,1015.56
2019-04-11T01:20:48.120Z,1015.59
2019-04-11T01:21:48.826Z,1015.56
2019-04-11T01:22:48.713Z,1015.60
2019-04-11T01:23:48.089Z,1015.60
2019-04-11T01:24:48.178Z,1015.66
2019-04-11T01:25:48.555Z,1015.62
2019-04-11T01:26:48.084Z,1015.71
2019-04-11T01:27:48.050Z,1015.67
2019-04-11T01:28:48.880Z,1015.68
2019-04-11T01:29:48.024Z,1015.69
2019-04-11T01:30:55.595Z,1015.67
2019-04-11T01:31:48.010Z,1015.67
2019-04-11T01:32:48.663Z,1015.67
2019-04-11T01:33:48.387Z,1015.71
2019-04-11T01:34:48.757Z,1015.67
2019-04-11T01:35:47.962Z,1015.70
2019-04-11T01:36:48.035Z,1015.73
2019-04-11T01:37:48.174Z,1015.73
2019-04-11T01:38:48.430Z,1015.68
2019-04-11T01:39:47.932Z,1015.70
2019-04-11T01:40:47.910Z,1015.71
2019-04-11T01:41:48.864Z,1015.72
2019-04-11T01:42:47.899Z,1015.66
2019-04-11T01:43:56.418Z,1015.73
2019-04-11T01:44:49.297Z,1015.70
2019-04-11T01:45:47.858Z,1015.72
2019-04-11T01:46:48.576Z,1015.71
2019-04-11T01:47:47.970Z,1015.72
2019-04-11T01:48:47.962Z,1015.74
2019-04-11T01:49:48.239Z,1015.74
2019-04-11T01:50:47.805Z,1015.77
2019-04-11T01:51:47.812Z,1015.73
2019-04-11T01:52:48.750Z,1015.73
2019-04-11T01:53:48.736Z,1015.71
2019-04-11T01:54:47.981Z,1015.73
2019-04-11T01:55:48.358Z,1015.73
2019-04-11T01:56:47.761Z,1015.73
2019-04-11T01:57:47.733Z,1015.81
2019-04-11T01:58:48.877Z,1015.77
2019-04-11T01:59:47.943Z,1015.83
2019-04-11T02:00:48.713Z,1015.84
2019-04-11T02:01:47.733Z,1015.81
2019-04-11T02:02:47.678Z,1015.89
2019-04-11T02:03:47.671Z,1015.89
2019-04-11T02:04:48.112Z,1015.89
2019-04-11T02:05:47.646Z,1015.88
2019-04-11T02:06:47.876Z,1015.93
2019-04-11T02:07:47.653Z,1015.91
2019-04-11T02:08:47.615Z,1015.91
2019-04-11T02:09:48.449Z,1015.90
2019-04-11T02:10:48.674Z,1015.90
2019-04-11T02:11:47.744Z,1015.90
2019-04-11T02:12:47.714Z,1015.90
2019-04-11T02:13:48.171Z,1015.93
2019-04-11T02:14:47.985Z,1015.94
2019-04-11T02:15:48.384Z,1015.98
2019-04-11T02:16:47.539Z,1015.95
2019-04-11T02:17:48.724Z,1015.96
2019-04-11T02:18:47.758Z,1015.94
2019-04-11T02:19:48.077Z,1016.01
2019-04-11T02:20:47.490Z,1015.98
2019-04-11T02:21:47.486Z,1016.01
2019-04-11T02:22:48.683Z,1016.01
2019-04-11T02:23:47.666Z,1016.05
2019-04-11T02:24:48.003Z,1016.03
2019-04-11T02:25:47.454Z,1016.09
2019-04-11T02:26:47.430Z,1016.04
2019-04-11T02:27:48.390Z,1016.07
2019-04-11T02:28:47.428Z,1016.07
2019-04-11T02:29:47.402Z,1016.13
2019-04-11T02:30:48.441Z,1016.09
2019-04-11T02:31:47.375Z,1016.09
2019-04-11T02:32:49.351Z,1016.05
2019-04-11T02:33:48.809Z,1016.12
2019-04-11T02:34:48.674Z,1016.11
2019-04-11T02:35:49.211Z,1016.09
2019-04-11T02:36:48.929Z,1016.12
2019-04-11T02:37:49.584Z,1016.10
2019-04-11T02:38:53.460Z,1016.08
2019-04-11T02:39:49.389Z,1016.02
2019-04-11T02:40:49.090Z,1016.09
2019-04-11T02:41:47.531Z,1016.11
2019-04-11T02:42:47.628Z,1016.10
2019-04-11T02:43:48.913Z,1016.09
2019-04-11T02:45:03.507Z,1016.14
2019-04-11T02:45:58.077Z,1016.09
2019-04-11T02:46:59.888Z,1016.14
2019-04-11T02:47:50.779Z,1016.18
2019-04-11T02:48:47.370Z,1016.18
2019-04-11T02:49:47.728Z,1016.20
2019-04-11T02:50:47.831Z,1016.20
2019-04-11T02:51:49.053Z,1016.27
2019-04-11T02:52:47.457Z,1016.26
2019-04-11T02:53:47.393Z,1016.28
2019-04-11T02:54:47.417Z,1016.28
2019-04-11T02:55:47.439Z,1016.28
2019-04-11T02:56:50.206Z,1016.29
2019-04-11T02:57:48.296Z,1016.27
2019-04-11T02:58:48.275Z,1016.25
2019-04-11T02:59:48.918Z,1016.29
2019-04-11T03:00:55.909Z,1016.28
2019-04-11T03:01:48.608Z,1016.27
2019-04-11T03:02:47.875Z,1016.25
2019-04-11T03:03:47.437Z,1016.29
2019-04-11T03:04:48.129Z,1016.23
2019-04-11T03:05:47.120Z,1016.24
2019-04-11T03:06:47.965Z,1016.28
2019-04-11T03:07:47.736Z,1016.26
2019-04-11T03:08:48.820Z,1016.21
2019-04-11T03:09:48.827Z,1016.29
2019-04-11T03:10:46.982Z,1016.26
2019-04-11T03:11:47.824Z,1016.24
2019-04-11T03:12:48.405Z,1016.25
2019-04-11T03:13:48.531Z,1016.27
2019-04-11T03:15:05.421Z,1016.25
2019-04-11T03:16:02.185Z,1016.28
2019-04-11T03:16:57.601Z,1016.27
2019-04-11T03:17:49.403Z,1016.31
2019-04-11T03:19:05.607Z,1016.32
2019-04-11T03:20:02.767Z,1016.26
2019-04-11T03:20:55.383Z,1016.28
2019-04-11T03:21:47.866Z,1016.30
2019-04-11T03:22:53.026Z,1016.30
2019-04-11T03:23:49.326Z,1016.30
2019-04-11T03:24:47.057Z,1016.33
2019-04-11T03:25:46.988Z,1016.26
2019-04-11T03:26:46.878Z,1016.29
2019-04-11T03:27:47.528Z,1016.33
2019-04-11T03:28:49.528Z,1016.31
2019-04-11T03:29:49.357Z,1016.25
2019-04-11T03:31:13.127Z,1016.28
2019-04-11T03:32:33.457Z,1016.30
2019-04-11T03:33:49.722Z,1016.27
2019-04-11T03:34:39.839Z,1016.29
2019-04-11T03:37:19.483Z,1016.32
2019-04-11T03:38:17.474Z,1016.25
2019-04-11T03:39:13.107Z,1016.33
2019-04-11T03:40:07.996Z,1016.29
2019-04-11T03:41:04.307Z,1016.38
2019-04-11T03:42:05.853Z,1016.38
2019-04-11T03:43:02.860Z,1016.41
2019-04-11T03:43:58.204Z,1016.43
2019-04-11T03:45:03.400Z,1016.43
2019-04-11T03:46:04.051Z,1016.44
2019-04-11T03:47:06.793Z,1016.46
2019-04-11T03:48:02.450Z,1016.45
2019-04-11T03:49:00.154Z,1016.47
2019-04-11T03:49:53.233Z,1016.50
2019-04-11T03:50:49.051Z,1016.49
2019-04-11T03:51:47.991Z,1016.45
2019-04-11T03:52:46.732Z,1016.55
2019-04-11T03:53:47.250Z,1016.45
2019-04-11T03:54:47.508Z,1016.52
2019-04-11T03:55:47.451Z,1016.51
2019-04-11T03:56:46.487Z,1016.49
2019-04-11T03:57:46.980Z,1016.52
2019-04-11T03:58:48.083Z,1016.50
2019-04-11T03:59:47.846Z,1016.53
2019-04-11T04:00:46.859Z,1016.57
2019-04-11T04:01:48.226Z,1016.56
2019-04-11T04:02:46.821Z,1016.53
2019-04-11T04:03:46.755Z,1016.56
2019-04-11T04:04:46.385Z,1016.55
2019-04-11T04:05:46.374Z,1016.53
2019-04-11T04:06:47.884Z,1016.60
2019-04-11T04:07:46.631Z,1016.59
2019-04-11T04:08:46.659Z,1016.62
2019-04-11T04:09:46.347Z,1016.62
2019-04-11T04:10:47.722Z,1016.62
2019-04-11T04:11:46.917Z,1016.65
2019-04-11T04:12:47.523Z,1016.63
2019-04-11T04:13:47.742Z,1016.66
2019-04-11T04:14:46.741Z,1016.64
2019-04-11T04:16:01.798Z,1016.69
2019-04-11T04:16:50.217Z,1016.70
2019-04-11T04:17:47.678Z,1016.65
2019-04-11T04:18:47.699Z,1016.61
2019-04-11T04:19:47.345Z,1016.62
2019-04-11T04:20:46.263Z,1016.67
2019-04-11T04:21:47.047Z,1016.73
2019-04-11T04:22:48.086Z,1016.70
2019-04-11T04:23:46.204Z,1016.73
2019-04-11T04:24:47.556Z,1016.69
2019-04-11T04:25:47.326Z,1016.80
2019-04-11T04:26:46.153Z,1016.76
2019-04-11T04:27:46.831Z,1016.78
2019-04-11T04:28:47.574Z,1016.82
2019-04-11T04:29:49.601Z,1016.83
2019-04-11T04:30:47.160Z,1016.85
2019-04-11T04:31:46.671Z,1016.86
2019-04-11T04:32:47.122Z,1016.88
2019-04-11T04:33:47.672Z,1016.87
2019-04-11T04:34:46.479Z,1016.84
2019-04-11T04:35:47.508Z,1016.89
2019-04-11T04:36:47.256Z,1016.92
2019-04-11T04:37:47.467Z,1016.95
2019-04-11T04:38:46.447Z,1016.99
2019-04-11T04:39:47.836Z,1017.00
2019-04-11T04:41:00.366Z,1017.00
2019-04-11T04:41:55.401Z,1017.02
2019-04-11T04:42:52.075Z,1017.06
2019-04-11T04:43:48.280Z,1017.01
2019-04-11T04:44:46.686Z,1017.05
2019-04-11T04:46:05.130Z,1017.02
2019-04-11T04:46:58.589Z,1017.07
2019-04-11T04:47:54.258Z,1017.08
2019-04-11T04:48:48.890Z,1017.02
2019-04-11T04:49:46.536Z,1017.03
2019-04-11T04:50:46.792Z,1017.10
2019-04-11T04:51:47.650Z,1017.14
2019-04-11T04:52:45.873Z,1017.15
2019-04-11T04:53:45.863Z,1017.16
2019-04-11T04:54:46.582Z,1017.16
2019-04-11T04:55:47.703Z,1017.16
2019-04-11T04:56:47.316Z,1017.18
2019-04-11T04:57:45.821Z,1017.18
2019-04-11T04:58:46.751Z,1017.20
2019-04-11T04:59:46.935Z,1017.23
2019-04-11T05:00:45.821Z,1017.19
2019-04-11T05:01:48.063Z,1017.24
2019-04-11T05:02:45.770Z,1017.22
2019-04-11T05:03:46.784Z,1017.20
2019-04-11T05:04:45.931Z,1017.23
2019-04-11T05:05:46.565Z,1017.17
2019-04-11T05:06:48.164Z,1017.24
2019-04-11T05:07:46.839Z,1017.22
2019-04-11T05:08:47.047Z,1017.20
2019-04-11T05:09:46.059Z,1017.22
2019-04-11T05:10:47.066Z,1017.24
2019-04-11T05:11:46.667Z,1017.26
2019-04-11T05:12:46.132Z,1017.22
2019-04-11T05:13:49.260Z,1017.25
2019-04-11T05:14:47.790Z,1017.23
2019-04-11T05:15:45.655Z,1017.24
2019-04-11T05:16:46.117Z,1017.24
2019-04-11T05:17:46.147Z,1017.21
2019-04-11T05:18:45.610Z,1017.25
2019-04-11T05:19:46.576Z,1017.26
2019-04-11T05:20:46.336Z,1017.30
2019-04-11T05:21:45.698Z,1017.21
2019-04-11T05:22:45.571Z,1017.28
2019-04-11T05:23:45.982Z,1017.35
2019-04-11T05:24:45.539Z,1017.33
2019-04-11T05:25:46.395Z,1017.34
2019-04-11T05:26:45.994Z,1017.31
2019-04-11T05:27:45.524Z,1017.35
2019-04-11T05:28:45.783Z,1017.37
2019-04-11T05:29:45.887Z,1017.37
2019-04-11T05:30:45.494Z,1017.33
2019-04-11T05:31:45.470Z,1017.41
2019-04-11T05:32:45.467Z,1017.41
2019-04-11T05:33:45.679Z,1017.44
2019-04-11T05:34:45.666Z,1017.49
2019-04-11T05:35:45.453Z,1017.47
2019-04-11T05:36:45.442Z,1017.49
2019-04-11T05:37:45.418Z,1017.51
2019-04-11T05:38:46.382Z,1017.57
2019-04-11T05:39:45.382Z,1017.52
2019-04-11T05:40:46.121Z,1017.49
2019-04-11T05:41:48.060Z,1017.52
2019-04-11T05:42:51.245Z,1017.49
2019-04-11T05:43:47.379Z,1017.46
2019-04-11T05:44:45.362Z,1017.56
2019-04-11T05:45:45.771Z,1017.59
2019-04-11T05:46:52.411Z,1017.47
2019-04-11T05:47:50.907Z,1017.51
2019-04-11T05:48:47.224Z,1017.54
2019-04-11T05:49:46.542Z,1017.51
2019-04-11T05:50:48.432Z,1017.52
2019-04-11T05:51:47.604Z,1017.52
2019-04-11T05:52:45.249Z,1017.55
2019-04-11T05:53:46.072Z,1017.50
2019-04-11T05:54:48.913Z,1017.64
2019-04-11T05:55:46.874Z,1017.56
2019-04-11T05:56:46.451Z,1017.63
2019-04-11T05:57:46.913Z,1017.60
2019-04-11T05:58:47.380Z,1017.54
2019-04-11T05:59:48.759Z,1017.60
2019-04-11T06:00:46.512Z,1017.58
2019-04-11T06:01:45.155Z,1017.59
2019-04-11T06:02:45.634Z,1017.63
2019-04-11T06:03:45.839Z,1017.66
2019-04-11T06:04:48.912Z,1017.66
2019-04-11T06:05:45.139Z,1017.65
2019-04-11T06:06:45.104Z,1017.70
2019-04-11T06:07:47.643Z,1017.69
2019-04-11T06:08:46.179Z,1017.67
2019-04-11T06:09:46.161Z,1017.69
2019-04-11T06:10:46.456Z,1017.71
2019-04-11T06:11:45.306Z,1017.71
2019-04-11T06:12:45.533Z,1017.70
2019-04-11T06:13:45.031Z,1017.68
2019-04-11T06:14:45.026Z,1017.72
2019-04-11T06:15:45.034Z,1017.73
2019-04-11T06:16:49.481Z,1017.76
2019-04-11T06:17:46.214Z,1017.72
2019-04-11T06:18:45.850Z,1017.74
2019-04-11T06:19:45.847Z,1017.76
2019-04-11T06:20:45.227Z,1017.73
2019-04-11T06:21:44.953Z,1017.68
2019-04-11T06:22:45.604Z,1017.66
2019-04-11T06:23:45.668Z,1017.68
2019-04-11T06:24:44.913Z,1017.77
2019-04-11T06:25:46.786Z,1017.71
2019-04-11T06:26:45.020Z,1017.73
2019-04-11T06:27:45.553Z,1017.77
2019-04-11T06:28:44.869Z,1017.79
2019-04-11T06:29:45.187Z,1017.80
2019-04-11T06:30:44.857Z,1017.83
2019-04-11T06:31:45.403Z,1017.82
2019-04-11T06:32:45.851Z,1017.80
2019-04-11T06:33:44.905Z,1017.87
2019-04-11T06:34:44.820Z,1017.84
2019-04-11T06:35:44.793Z,1017.83
2019-04-11T06:36:45.245Z,1017.87
2019-04-11T06:37:45.683Z,1017.86
2019-04-11T06:38:44.970Z,1017.87
2019-04-11T06:39:45.323Z,1017.89
2019-04-11T06:40:44.739Z,1017.87
2019-04-11T06:41:44.739Z,1017.85
2019-04-11T06:42:45.513Z,1017.94
2019-04-11T06:43:44.730Z,1017.90
2019-04-11T06:44:45.951Z,1017.85
2019-04-11T06:45:44.692Z,1017.87
2019-04-11T06:46:53.893Z,1017.87
2019-04-11T06:47:45.666Z,1017.89
2019-04-11T06:48:45.501Z,1017.83
2019-04-11T06:49:44.688Z,1017.85
2019-04-11T06:50:44.639Z,1017.88
2019-04-11T06:51:44.622Z,1017.87
2019-04-11T06:52:45.345Z,1017.92
2019-04-11T06:53:44.629Z,1017.90
2019-04-11T06:54:45.408Z,1017.98
2019-04-11T06:55:44.774Z,1017.96
2019-04-11T06:56:45.475Z,1017.96
2019-04-11T06:57:45.820Z,1017.95
2019-04-11T06:58:45.755Z,1017.98
2019-04-11T06:59:44.907Z,1017.90
2019-04-11T07:00:45.293Z,1017.92
2019-04-11T07:01:45.426Z,1017.90
2019-04-11T07:02:44.552Z,1017.92
2019-04-11T07:03:44.987Z,1017.95
2019-04-11T07:04:44.485Z,1017.96
2019-04-11T07:05:44.475Z,1017.97
2019-04-11T07:06:44.467Z,1017.98
2019-04-11T07:07:45.125Z,1018.04
2019-04-11T07:08:44.792Z,1017.99
2019-04-11T07:09:45.007Z,1018.00
2019-04-11T07:10:44.698Z,1018.02
2019-04-11T07:11:44.827Z,1017.93
2019-04-11T07:12:44.406Z,1017.94
2019-04-11T07:13:45.473Z,1017.96
2019-04-11T07:14:45.507Z,1017.97
2019-04-11T07:15:44.365Z,1017.97
2019-04-11T07:16:44.666Z,1018.01
2019-04-11T07:17:44.355Z,1018.01
2019-04-11T07:18:44.346Z,1017.97
2019-04-11T07:19:44.479Z,1018.00
2019-04-11T07:20:45.564Z,1017.97
2019-04-11T07:21:44.318Z,1017.94
2019-04-11T07:22:44.293Z,1017.95
2019-04-11T07:23:44.736Z,1017.96
2019-04-11T07:24:45.291Z,1017.97
2019-04-11T07:25:45.154Z,1017.96
2019-04-11T07:26:44.253Z,1018.01
2019-04-11T07:27:45.079Z,1017.97
2019-04-11T07:28:44.229Z,1017.93
2019-04-11T07:29:44.322Z,1018.02
2019-04-11T07:30:45.239Z,1018.04
2019-04-11T07:31:44.351Z,1018.05
2019-04-11T07:32:45.089Z,1018.02
2019-04-11T07:33:45.071Z,1018.00
2019-04-11T07:34:44.176Z,1017.99
2019-04-11T07:35:45.155Z,1017.98
2019-04-11T07:36:44.167Z,1018.02
2019-04-11T07:37:44.719Z,1017.99
2019-04-11T07:38:45.482Z,1018.02
2019-04-11T07:39:45.014Z,1018.09
2019-04-11T07:40:44.105Z,1018.06
2019-04-11T07:41:45.610Z,1017.96
2019-04-11T07:42:44.109Z,1018.07
2019-04-11T07:43:44.072Z,1018.01
2019-04-11T07:44:45.135Z,1018.00
2019-04-11T07:45:44.055Z,1018.06
2019-04-11T07:46:44.086Z,1018.02
2019-04-11T07:47:44.041Z,1018.05
2019-04-11T07:48:44.708Z,1018.03
2019-04-11T07:49:44.984Z,1017.95
2019-04-11T07:50:44.417Z,1018.02
2019-04-11T07:51:45.036Z,1018.07
2019-04-11T07:52:44.824Z,1018.05
2019-04-11T07:53:43.967Z,1018.03
2019-04-11T07:54:43.965Z,1018.02
2019-04-11T07:55:44.459Z,1018.08
2019-04-11T07:56:44.268Z,1018.11
2019-04-11T07:57:44.731Z,1018.07
2019-04-11T07:58:43.916Z,1018.13
2019-04-11T07:59:43.904Z,1018.17
2019-04-11T08:00:47.221Z,1018.11
2019-04-11T08:01:44.881Z,1018.06
2019-04-11T08:02:43.890Z,1018.09
2019-04-11T08:03:44.645Z,1017.95
2019-04-11T08:04:43.853Z,1017.97
2019-04-11T08:05:44.630Z,1017.99
2019-04-11T08:06:43.843Z,1017.98
2019-04-11T08:07:44.832Z,1017.97
2019-04-11T08:08:43.812Z,1017.98
2019-04-11T08:09:43.914Z,1018.04
2019-04-11T08:10:43.802Z,1018.01
2019-04-11T08:11:44.261Z,1018.01
2019-04-11T08:12:43.809Z,1017.98
2019-04-11T08:13:44.822Z,1017.96
2019-04-11T08:14:44.608Z,1018.02
2019-04-11T08:15:43.942Z,1018.01
2019-04-11T08:16:44.879Z,1017.99
2019-04-11T08:17:44.478Z,1018.01
2019-04-11T08:18:43.724Z,1017.97
2019-04-11T08:19:43.835Z,1018.02
2019-04-11T08:20:43.686Z,1018.04
2019-04-11T08:21:44.083Z,1018.00
2019-04-11T08:22:43.664Z,1018.02
2019-04-11T08:23:45.707Z,1018.08
2019-04-11T08:24:44.802Z,1018.08
2019-04-11T08:25:43.631Z,1018.11
2019-04-11T08:26:44.365Z,1018.04
2019-04-11T08:27:56.018Z,1018.09
2019-04-11T08:28:45.625Z,1018.03
2019-04-11T08:29:44.360Z,1018.04
2019-04-11T08:30:43.581Z,1018.07
2019-04-11T08:31:44.528Z,1018.08
2019-04-11T08:32:44.223Z,1018.10
2019-04-11T08:33:43.559Z,1018.14
2019-04-11T08:34:43.775Z,1018.12
2019-04-11T08:35:44.101Z,1018.10
2019-04-11T08:36:44.187Z,1018.09
2019-04-11T08:37:43.507Z,1018.06
2019-04-11T08:38:44.613Z,1018.03
2019-04-11T08:39:43.503Z,1018.03
2019-04-11T08:40:43.472Z,1018.03
2019-04-11T08:41:44.066Z,1018.03
2019-04-11T08:42:43.455Z,1018.08
2019-04-11T08:43:43.449Z,1018.13
2019-04-11T08:44:45.179Z,1018.12
2019-04-11T08:45:44.448Z,1018.06
2019-04-11T08:46:43.416Z,1018.10
2019-04-11T08:47:47.583Z,1018.09
2019-04-11T08:48:45.294Z,1018.17
2019-04-11T08:49:43.380Z,1018.14
2019-04-11T08:50:43.421Z,1018.17
2019-04-11T08:51:43.357Z,1018.11
2019-04-11T08:52:44.414Z,1018.14
2019-04-11T08:53:43.335Z,1018.11
2019-04-11T08:54:43.842Z,1018.14
2019-04-11T08:55:50.116Z,1018.14
2019-04-11T08:56:45.385Z,1018.14
2019-04-11T08:57:44.384Z,1018.17
2019-04-11T08:58:43.284Z,1018.11
2019-04-11T08:59:43.991Z,1018.15
2019-04-11T09:00:43.289Z,1018.12
2019-04-11T09:01:44.301Z,1018.13
2019-04-11T09:02:43.241Z,1018.05
2019-04-11T09:03:44.084Z,1018.08
2019-04-11T09:04:43.222Z,1018.05
2019-04-11T09:05:43.208Z,1018.05
2019-04-11T09:06:43.228Z,1018.08
2019-04-11T09:07:43.535Z,1018.09
2019-04-11T09:08:43.187Z,1018.11
2019-04-11T09:09:43.258Z,1018.10
2019-04-11T09:10:44.288Z,1018.11
2019-04-11T09:11:43.205Z,1018.15
2019-04-11T09:12:43.141Z,1018.08
2019-04-11T09:13:43.998Z,1018.07
2019-04-11T09:14:44.311Z,1018.09
2019-04-11T09:15:43.288Z,1018.04
2019-04-11T09:16:43.093Z,1018.11
2019-04-11T09:17:55.208Z,1018.00
2019-04-11T09:18:44.145Z,1018.02
2019-04-11T09:19:43.120Z,1018.06
2019-04-11T09:20:43.424Z,1018.07
2019-04-11T09:21:43.051Z,1018.01
2019-04-11T09:22:43.062Z,1018.08
2019-04-11T09:23:43.973Z,1018.04
2019-04-11T09:24:43.237Z,1018.01
2019-04-11T09:25:43.504Z,1018.01
2019-04-11T09:26:42.994Z,1018.00
2019-04-11T09:27:42.995Z,1018.07
2019-04-11T09:28:44.074Z,1017.99
2019-04-11T09:29:43.024Z,1018.02
2019-04-11T09:30:43.159Z,1018.04
2019-04-11T09:31:43.897Z,1018.06
2019-04-11T09:32:42.953Z,1018.02
2019-04-11T09:33:42.918Z,1017.99
2019-04-11T09:34:44.038Z,1018.03
2019-04-11T09:35:43.666Z,1018.02
2019-04-11T09:36:42.967Z,1018.07
2019-04-11T09:37:44.249Z,1018.10
2019-04-11T09:38:42.882Z,1018.11
2019-04-11T09:39:43.510Z,1018.09
2019-04-11T09:40:43.764Z,1018.06
2019-04-11T09:41:42.835Z,1018.05
2019-04-11T09:42:43.097Z,1018.05
2019-04-11T09:43:42.827Z,1018.04
2019-04-11T09:44:42.802Z,1018.00
2019-04-11T09:45:43.920Z,1018.01
2019-04-11T09:46:42.830Z,1018.00
2019-04-11T09:47:42.764Z,1018.00
2019-04-11T09:48:44.142Z,1017.90
2019-04-11T09:49:42.948Z,1017.90
2019-04-11T09:50:42.776Z,1017.95
2019-04-11T09:51:42.731Z,1017.84
2019-04-11T09:52:42.712Z,1017.93
2019-04-11T09:53:43.039Z,1017.96
2019-04-11T09:54:42.693Z,1017.86
2019-04-11T09:55:43.705Z,1017.92
2019-04-11T09:56:43.014Z,1017.87
2019-04-11T09:57:42.659Z,1017.83
2019-04-11T09:58:42.650Z,1017.82
2019-04-11T09:59:42.665Z,1017.88
2019-04-11T10:00:43.127Z,1017.86
2019-04-11T10:01:42.976Z,1017.87
2019-04-11T10:02:42.606Z,1017.87
2019-04-11T10:03:43.001Z,1017.90
2019-04-11T10:04:50.185Z,1017.85
2019-04-11T10:05:42.669Z,1017.86
2019-04-11T10:06:42.566Z,1017.87
2019-04-11T10:07:42.560Z,1017.87
2019-04-11T10:08:43.668Z,1017.88
2019-04-11T10:09:42.541Z,1017.84
2019-04-11T10:10:44.591Z,1017.84
2019-04-11T10:11:42.514Z,1017.84
2019-04-11T10:12:42.611Z,1017.77
2019-04-11T10:13:42.815Z,1017.76
2019-04-11T10:14:43.674Z,1017.84
2019-04-11T10:15:43.190Z,1017.79
2019-04-11T10:16:42.475Z,1017.77
2019-04-11T10:17:42.683Z,1017.80
2019-04-11T10:18:43.942Z,1017.79
2019-04-11T10:19:42.445Z,1017.80
2019-04-11T10:20:42.624Z,1017.79
2019-04-11T10:21:43.594Z,1017.73
2019-04-11T10:22:43.790Z,1017.72
2019-04-11T10:23:43.034Z,1017.73
2019-04-11T10:24:42.934Z,1017.71
2019-04-11T10:25:43.374Z,1017.73
2019-04-11T10:26:42.426Z,1017.73
2019-04-11T10:27:42.353Z,1017.70
2019-04-11T10:28:42.341Z,1017.76
2019-04-11T10:29:42.364Z,1017.77
2019-04-11T10:30:42.323Z,1017.74
2019-04-11T10:31:42.343Z,1017.80
2019-04-11T10:32:43.365Z,1017.79
2019-04-11T10:33:42.283Z,1017.79
2019-04-11T10:34:42.282Z,1017.79
2019-04-11T10:35:42.774Z,1017.81
2019-04-11T10:36:43.226Z,1017.80
2019-04-11T10:37:42.274Z,1017.83
2019-04-11T10:38:42.243Z,1017.83
2019-04-11T10:39:42.227Z,1017.78
2019-04-11T10:40:42.207Z,1017.83
2019-04-11T10:41:42.195Z,1017.77
2019-04-11T10:42:42.520Z,1017.78
2019-04-11T10:43:42.563Z,1017.80
2019-04-11T10:44:42.365Z,1017.80
2019-04-11T10:45:42.733Z,1017.78
2019-04-11T10:46:42.185Z,1017.77
2019-04-11T10:47:42.162Z,1017.78
2019-04-11T10:48:45.016Z,1017.81
2019-04-11T10:49:42.166Z,1017.85
2019-04-11T10:50:42.425Z,1017.82
2019-04-11T10:51:42.344Z,1017.84
2019-04-11T10:52:42.532Z,1017.83
2019-04-11T10:53:42.075Z,1017.80
2019-04-11T10:54:42.068Z,1017.79
2019-04-11T10:55:42.063Z,1017.81
2019-04-11T10:56:43.173Z,1017.86
2019-04-11T10:57:42.384Z,1017.80
2019-04-11T10:58:42.717Z,1017.78
2019-04-11T10:59:42.941Z,1017.80
2019-04-11T11:00:43.142Z,1017.78
2019-04-11T11:01:42.309Z,1017.79
2019-04-11T11:02:41.977Z,1017.79
2019-04-11T11:03:43.005Z,1017.77
2019-04-11T11:04:43.005Z,1017.80
2019-04-11T11:05:42.912Z,1017.79
2019-04-11T11:06:42.035Z,1017.84
2019-04-11T11:07:42.503Z,1017.82
2019-04-11T11:08:41.936Z,1017.77
2019-04-11T11:09:42.190Z,1017.84
2019-04-11T11:10:41.935Z,1017.81
2019-04-11T11:11:41.873Z,1017.81
2019-04-11T11:12:41.866Z,1017.76
2019-04-11T11:13:42.440Z,1017.80
2019-04-11T11:14:42.893Z,1017.81
2019-04-11T11:15:41.980Z,1017.80
2019-04-11T11:16:44.866Z,1017.85
2019-04-11T11:18:00.974Z,1017.80
2019-04-11T11:19:14.963Z,1017.75
2019-04-11T11:19:55.235Z,1017.78
2019-04-11T11:20:51.350Z,1017.73
2019-04-11T11:21:43.029Z,1017.76
2019-04-11T11:22:42.969Z,1017.76
2019-04-11T11:23:42.830Z,1017.77
2019-04-11T11:24:42.097Z,1017.76
2019-04-11T11:25:42.269Z,1017.73
2019-04-11T11:26:41.724Z,1017.78
2019-04-11T11:27:41.721Z,1017.79
2019-04-11T11:28:43.040Z,1017.82
2019-04-11T11:29:42.957Z,1017.82
2019-04-11T11:30:41.696Z,1017.80
2019-04-11T11:31:42.745Z,1017.81
2019-04-11T11:32:41.657Z,1017.78
2019-04-11T11:33:42.671Z,1017.83
2019-04-11T11:34:41.653Z,1017.85
2019-04-11T11:35:42.808Z,1017.83
2019-04-11T11:36:41.665Z,1017.86
2019-04-11T11:37:41.725Z,1017.81
2019-04-11T11:38:41.908Z,1017.82
2019-04-11T11:39:41.600Z,1017.85
2019-04-11T11:40:43.208Z,1017.86
2019-04-11T11:41:42.526Z,1017.83
2019-04-11T11:42:42.152Z,1017.80
2019-04-11T11:43:41.537Z,1017.84
2019-04-11T11:44:41.551Z,1017.87
2019-04-11T11:45:41.662Z,1017.86
2019-04-11T11:46:42.632Z,1017.82
2019-04-11T11:47:41.997Z,1017.79
2019-04-11T11:48:41.784Z,1017.79
2019-04-11T11:49:51.706Z,1017.81
2019-04-11T11:50:42.734Z,1017.75
2019-04-11T11:52:57.439Z,1017.84
2019-04-11T11:53:57.448Z,1017.86
2019-04-11T11:54:57.168Z,1017.83
2019-04-11T11:55:57.905Z,1017.85
2019-04-11T11:56:58.130Z,1017.82
2019-04-11T11:57:57.300Z,1017.75
2019-04-11T11:58:58.577Z,1017.84
2019-04-11T11:59:57.104Z,1017.78
2019-04-11T12:00:58.679Z,1017.81
2019-04-11T12:01:57.062Z,1017.85
2019-04-11T12:02:57.053Z,1017.82
2019-04-11T12:04:00.136Z,1017.74
2019-04-11T12:04:57.058Z,1017.76
2019-04-11T12:05:57.040Z,1017.76
2019-04-11T12:07:01.829Z,1017.79
2019-04-11T12:07:58.209Z,1017.74
2019-04-11T12:08:58.138Z,1017.65